ROMMA est une association bénévole à but non lucratif. Votre soutien est indispensable : ADHERER à ROMMA ou FAIRE un DON

Briord - (01, Ain)

Bugey (281 m)   Longitude: 05° 29' 13" E   Latitude: 45° 46' 37" N Station partenaire n°15
 

Détail journalier du     <<     >>

Température Precipitation Humidité Pression Vent Dir Rafale Dir. rafale Ensol.
Heure (°C) (mm) (%) (hPa) (km/h) (km/h) (min)
01:00 14.70.6941019010NNO0
02:00 14.6094101805ONO0
03:00 14.6094101800---0
04:00 14.6094101700---0
05:00 14.6094101703ONO0
06:00 14.3094101705O0
07:00 14.3094101605SSE0
08:00 14.20.49410181O16NNE0
09:00 14.40.49410181ONO16NNE0
10:00 14.909310185SSE16SSE0
11:00 15.009210191ONO10O0
12:00 17.608610183N15NNE5
13:00 19.808010188NO18NO35
14:00 20.307210187ONO24NO30
15:00 21.406710188ONO21NO35
16:00 23.305710177NO21N60
17:00 23.905210175ONO16NO45
18:00 24.705010173O16OSO60
19:00 23.605710173O13NO60
20:00 21.506310182ONO10O35
21:00 18.7082101806NO0
22:00 15.90.288101903ESE0
23:00 14.2090101902SE0
minuit 15.408410201NNE19NNE0

Graphique du 12-08-2019

 

Serveur OMMA